Time;durP1;ratioP1;P1;durP2;ratioP2;P2;SDS_P1;SDS_P2;PMS_P1;PMS_P2;Temp;Humidity;BMP_temperature;BMP_pressure;BME280_temperature;BME280_humidity;BME280_pressure;Samples;Min_cycle;Max_cycle;Signal;HPM_P1;HPM_P2
2021/08/15 00:00:56;;;;;;;12.63;9.93;;;21.50;77.50;;;;;;5155758;27;20023;-80
2021/08/15 00:03:22;;;;;;;13.80;9.85;;;21.50;77.80;;;;;;5155849;27;20114;-81
2021/08/15 00:05:48;;;;;;;12.48;10.65;;;21.50;77.40;;;;;;5155525;27;20102;-81
2021/08/15 00:08:13;;;;;;;16.25;10.32;;;21.50;77.40;;;;;;5155453;27;20068;-81
2021/08/15 00:10:39;;;;;;;16.85;11.02;;;21.50;77.50;;;;;;5155730;27;20063;-81
2021/08/15 00:13:06;;;;;;;14.35;10.13;;;21.40;77.60;;;;;;5155571;27;20109;-80
2021/08/15 00:15:32;;;;;;;13.88;10.05;;;21.50;77.80;;;;;;5155763;27;20052;-80
2021/08/15 00:17:57;;;;;;;13.55;9.85;;;21.40;77.60;;;;;;5155549;27;20034;-80
2021/08/15 00:20:23;;;;;;;14.52;10.13;;;21.50;77.80;;;;;;5155553;27;20355;-78
2021/08/15 00:22:49;;;;;;;11.65;9.95;;;21.50;77.60;;;;;;5155432;27;20075;-81
2021/08/15 00:25:16;;;;;;;14.07;10.50;;;21.40;77.80;;;;;;5137170;27;20510;-80
2021/08/15 00:27:42;;;;;;;18.05;10.95;;;21.40;77.60;;;;;;5155428;27;20023;-81
2021/08/15 00:30:09;;;;;;;16.23;10.52;;;21.30;77.70;;;;;;5155366;27;20071;-80
2021/08/15 00:32:37;;;;;;;15.02;10.18;;;21.20;78.40;;;;;;5155207;27;20035;-79
2021/08/15 00:35:04;;;;;;;17.88;10.23;;;21.00;78.80;;;;;;5155331;27;20022;-81
2021/08/15 00:37:30;;;;;;;12.68;9.98;;;21.00;79.10;;;;;;5155284;27;20022;-80
2021/08/15 00:39:56;;;;;;;17.08;10.55;;;20.90;79.40;;;;;;5155240;27;20522;-80
2021/08/15 00:42:22;;;;;;;14.40;10.90;;;20.90;79.50;;;;;;5136756;27;20026;-81
2021/08/15 00:44:47;;;;;;;17.23;10.18;;;21.00;79.30;;;;;;5155228;27;20035;-83
2021/08/15 00:47:13;;;;;;;13.48;10.20;;;21.00;79.30;;;;;;5154992;27;20037;-82
2021/08/15 00:49:39;;;;;;;14.48;11.20;;;21.00;79.20;;;;;;5154882;27;20058;-83
2021/08/15 00:52:05;;;;;;;15.50;10.60;;;21.00;78.90;;;;;;5154786;27;20119;-82
2021/08/15 00:54:31;;;;;;;12.65;10.18;;;20.90;78.90;;;;;;5155057;27;20444;-83
2021/08/15 00:56:57;;;;;;;15.30;10.80;;;20.90;79.20;;;;;;5154818;27;20026;-80
2021/08/15 00:59:23;;;;;;;15.10;10.85;;;20.80;79.50;;;;;;5154934;27;20023;-83
2021/08/15 01:01:52;;;;;;;15.98;10.15;;;20.80;79.80;;;;;;5154849;27;20088;-81
2021/08/15 01:04:21;;;;;;;18.52;10.05;;;20.90;79.50;;;;;;5154866;27;20019;-82
2021/08/15 01:06:53;;;;;;;12.57;10.07;;;21.00;79.20;;;;;;5154970;27;20022;-81
2021/08/15 01:09:22;;;;;;;16.65;9.75;;;21.10;78.70;;;;;;5154937;27;20049;-82
2021/08/15 01:11:48;;;;;;;18.75;10.20;;;21.10;78.30;;;;;;5154633;27;20101;-82
2021/08/15 01:14:14;;;;;;;14.30;10.45;;;21.10;78.20;;;;;;5154745;27;20105;-83
2021/08/15 01:16:43;;;;;;;12.70;10.02;;;21.10;78.30;;;;;;5154658;27;20019;-83
2021/08/15 01:19:11;;;;;;;15.82;9.98;;;21.00;78.60;;;;;;5154254;27;20019;-82
2021/08/15 01:21:38;;;;;;;15.55;10.38;;;20.90;79.00;;;;;;5154799;27;20078;-81
2021/08/15 01:24:04;;;;;;;15.07;10.35;;;20.90;79.10;;;;;;5154848;27;20030;-81
2021/08/15 01:26:30;;;;;;;14.63;10.43;;;20.90;79.20;;;;;;5155477;27;20019;-78
2021/08/15 01:28:56;;;;;;;14.68;10.30;;;20.90;79.00;;;;;;5156127;27;20018;-78
2021/08/15 01:31:23;;;;;;;14.60;10.52;;;20.90;78.90;;;;;;5164222;27;20025;-78
2021/08/15 01:33:49;;;;;;;17.48;11.07;;;20.70;79.30;;;;;;5171720;27;20030;-78
2021/08/15 01:36:17;;;;;;;13.23;10.15;;;20.60;79.80;;;;;;5165963;27;20048;-77
2021/08/15 01:38:44;;;;;;;17.63;10.55;;;20.60;79.70;;;;;;5168147;27;20037;-81
2021/08/15 01:41:10;;;;;;;15.50;10.90;;;20.60;79.80;;;;;;5156253;27;20019;-80
2021/08/15 01:43:49;;;;;;;14.43;10.43;;;20.60;80.10;;;;;;5136307;27;20019;-82
2021/08/15 01:46:15;;;;;;;13.10;10.65;;;20.60;80.30;;;;;;5154838;27;20505;-84
2021/08/15 01:48:41;;;;;;;15.57;10.20;;;20.50;80.20;;;;;;5154797;27;20107;-83
2021/08/15 01:51:07;;;;;;;14.80;9.88;;;20.50;80.20;;;;;;5154455;27;20058;-80
2021/08/15 01:53:32;;;;;;;17.02;10.23;;;20.50;80.30;;;;;;5154635;27;20027;-80
2021/08/15 01:55:58;;;;;;;16.75;10.40;;;20.50;80.50;;;;;;5154916;27;20023;-83
2021/08/15 01:58:23;;;;;;;14.35;10.77;;;20.40;80.50;;;;;;5154068;27;20501;-81
2021/08/15 02:00:49;;;;;;;18.73;10.05;;;20.40;80.70;;;;;;5154921;27;20026;-79
2021/08/15 02:03:14;;;;;;;16.40;10.52;;;20.40;80.70;;;;;;5154834;27;20098;-81
2021/08/15 02:05:42;;;;;;;12.88;10.77;;;20.40;80.70;;;;;;5154533;27;20459;-83
2021/08/15 02:08:08;;;;;;;14.55;11.23;;;20.40;81.00;;;;;;5155551;27;20103;-83
2021/08/15 02:10:34;;;;;;;16.23;10.40;;;20.30;81.10;;;;;;5156067;27;20072;-84
2021/08/15 02:13:02;;;;;;;13.82;10.70;;;20.30;81.20;;;;;;5154832;27;20095;-83
2021/08/15 02:15:28;;;;;;;18.45;11.10;;;20.30;81.20;;;;;;5155256;27;20029;-78
2021/08/15 02:17:54;;;;;;;20.08;11.23;;;20.20;81.20;;;;;;5162539;27;20019;-79
2021/08/15 02:20:20;;;;;;;20.02;11.23;;;20.20;81.40;;;;;;5160602;27;20071;-78
2021/08/15 02:22:46;;;;;;;17.58;10.27;;;20.20;81.40;;;;;;5158179;27;20030;-76
2021/08/15 02:25:14;;;;;;;14.23;11.00;;;20.10;81.60;;;;;;5154995;27;20481;-79
2021/08/15 02:27:41;;;;;;;17.35;10.73;;;20.20;81.60;;;;;;5173945;27;20027;-80
2021/08/15 02:30:09;;;;;;;16.20;11.18;;;20.20;81.50;;;;;;5161715;27;20106;-80
2021/08/15 02:32:35;;;;;;;16.63;10.93;;;20.20;81.30;;;;;;5170948;27;20126;-77
2021/08/15 02:35:02;;;;;;;14.43;10.30;;;20.30;81.20;;;;;;5180803;27;20023;-80
2021/08/15 02:37:28;;;;;;;15.40;10.68;;;20.30;81.30;;;;;;5182743;27;20041;-77
2021/08/15 02:39:58;;;;;;;13.70;10.35;;;20.30;81.10;;;;;;5181708;27;20019;-79
2021/08/15 02:42:31;;;;;;;12.15;10.52;;;20.20;80.90;;;;;;5172706;27;20042;-79
2021/08/15 02:44:57;;;;;;;13.25;10.70;;;20.30;80.90;;;;;;5140605;27;20497;-79
2021/08/15 02:47:22;;;;;;;16.15;10.90;;;20.40;80.60;;;;;;5158290;27;20023;-81
2021/08/15 02:49:48;;;;;;;13.43;10.02;;;20.40;80.10;;;;;;5158089;27;20027;-79
2021/08/15 02:52:14;;;;;;;16.10;10.40;;;20.40;80.30;;;;;;5157961;27;20035;-79
2021/08/15 02:54:39;;;;;;;17.67;10.25;;;20.40;80.40;;;;;;5158303;27;20026;-78
2021/08/15 02:57:05;;;;;;;12.57;10.10;;;20.30;80.50;;;;;;5158098;27;20354;-79
2021/08/15 02:59:33;;;;;;;12.95;10.57;;;20.40;80.20;;;;;;5158222;27;20027;-82
2021/08/15 03:01:59;;;;;;;12.82;10.85;;;20.40;80.00;;;;;;5157945;27;20374;-83
2021/08/15 03:04:24;;;;;;;15.05;10.05;;;20.40;79.80;;;;;;5158115;27;20030;-82
2021/08/15 03:06:50;;;;;;;15.90;10.07;;;20.50;79.90;;;;;;5158573;27;20127;-82
2021/08/15 03:09:15;;;;;;;14.23;10.30;;;20.50;80.00;;;;;;5158029;27;20027;-84
2021/08/15 03:11:41;;;;;;;12.20;10.00;;;20.40;79.60;;;;;;5157805;27;20022;-83
2021/08/15 03:14:06;;;;;;;12.50;10.50;;;20.40;79.80;;;;;;5158147;27;20039;-83
2021/08/15 03:16:32;;;;;;;14.93;10.57;;;20.30;80.30;;;;;;5158026;27;20374;-79
2021/08/15 03:18:57;;;;;;;14.85;10.32;;;20.20;80.50;;;;;;5157499;27;20026;-83
2021/08/15 03:21:29;;;;;;;16.23;10.50;;;20.10;80.90;;;;;;5157806;27;20029;-82
2021/08/15 03:23:55;;;;;;;17.58;10.23;;;20.20;80.90;;;;;;5157290;27;20102;-80
2021/08/15 03:26:20;;;;;;;15.30;10.50;;;20.10;81.00;;;;;;5138647;27;20064;-77
2021/08/15 03:28:46;;;;;;;14.00;9.82;;;20.10;80.90;;;;;;5157150;27;20408;-82
2021/08/15 03:31:11;;;;;;;22.13;10.98;;;20.10;81.00;;;;;;5157026;27;20033;-81
2021/08/15 03:33:37;;;;;;;16.10;10.30;;;20.00;80.90;;;;;;5158390;27;20385;-81
2021/08/15 03:36:03;;;;;;;12.48;10.10;;;20.10;81.10;;;;;;5156902;27;20022;-80
2021/08/15 03:38:28;;;;;;;14.27;10.50;;;20.00;81.20;;;;;;5156733;27;20482;-80
2021/08/15 03:40:54;;;;;;;16.10;10.25;;;20.00;81.10;;;;;;5156373;27;20025;-80
2021/08/15 03:43:19;;;;;;;15.30;10.60;;;20.00;81.20;;;;;;5138244;27;20023;-81
2021/08/15 03:45:45;;;;;;;15.63;10.10;;;20.00;81.10;;;;;;5156736;27;20029;-81
2021/08/15 03:48:10;;;;;;;16.90;9.63;;;20.00;80.90;;;;;;5156491;27;20053;-80
2021/08/15 03:50:36;;;;;;;13.93;9.63;;;20.10;80.90;;;;;;5156416;27;20033;-81
2021/08/15 03:53:02;;;;;;;12.95;10.07;;;20.10;81.00;;;;;;5156527;27;20117;-82
2021/08/15 03:55:27;;;;;;;12.43;9.38;;;20.20;80.50;;;;;;5156274;27;20034;-82
2021/08/15 03:57:53;;;;;;;16.75;10.75;;;20.20;80.20;;;;;;5137947;27;20106;-81
2021/08/15 04:00:19;;;;;;;14.27;9.68;;;20.20;80.00;;;;;;5156288;27;20026;-82
2021/08/15 04:02:44;;;;;;;15.90;10.38;;;20.20;80.10;;;;;;5156218;27;20054;-79
2021/08/15 04:05:10;;;;;;;14.85;10.63;;;20.10;80.40;;;;;;5156202;27;20037;-78
2021/08/15 04:07:36;;;;;;;16.17;10.25;;;19.90;80.80;;;;;;5156428;27;20054;-80
2021/08/15 04:10:03;;;;;;;13.05;10.18;;;19.90;81.00;;;;;;5156525;27;20378;-80
2021/08/15 04:12:29;;;;;;;16.00;9.80;;;19.80;81.20;;;;;;5157351;27;20053;-82
2021/08/15 04:14:55;;;;;;;13.90;10.73;;;19.70;81.70;;;;;;5156822;27;20034;-81
2021/08/15 04:17:20;;;;;;;17.98;10.48;;;19.70;81.80;;;;;;5155866;27;20019;-79
2021/08/15 04:19:46;;;;;;;16.40;10.98;;;19.60;82.20;;;;;;5155861;27;20098;-81
2021/08/15 04:22:12;;;;;;;14.35;10.32;;;19.60;82.60;;;;;;5155777;27;20019;-80
2021/08/15 04:24:38;;;;;;;16.23;10.40;;;19.50;82.90;;;;;;5155592;27;20482;-81
2021/08/15 04:27:04;;;;;;;14.13;11.05;;;19.50;82.80;;;;;;5155731;27;20027;-82
2021/08/15 04:29:29;;;;;;;16.80;11.50;;;19.40;83.10;;;;;;5155714;27;20029;-81
2021/08/15 04:31:55;;;;;;;13.15;10.02;;;19.40;83.50;;;;;;5155756;27;20022;-81
2021/08/15 04:34:20;;;;;;;13.10;10.18;;;19.40;83.40;;;;;;5155540;27;20027;-82
2021/08/15 04:36:46;;;;;;;18.23;11.30;;;19.40;83.00;;;;;;5155530;27;20023;-82
2021/08/15 04:39:12;;;;;;;16.40;10.43;;;19.40;82.90;;;;;;5155417;27;20023;-82
2021/08/15 04:41:37;;;;;;;16.40;11.70;;;19.40;83.30;;;;;;5155471;27;20075;-81
2021/08/15 04:44:03;;;;;;;17.17;11.13;;;19.30;83.60;;;;;;5155387;27;20051;-80
2021/08/15 04:46:29;;;;;;;13.40;10.43;;;19.30;83.50;;;;;;5155376;27;20023;-81
2021/08/15 04:48:54;;;;;;;11.30;9.40;;;19.30;83.50;;;;;;5155257;27;20019;-81
2021/08/15 04:51:20;;;;;;;16.90;10.23;;;19.50;83.50;;;;;;5155342;27;20035;-82
2021/08/15 04:53:45;;;;;;;17.13;12.25;;;19.60;82.70;;;;;;5155575;27;20130;-83
2021/08/15 04:56:11;;;;;;;16.95;13.38;;;19.50;82.40;;;;;;5156698;27;20023;-83
2021/08/15 04:58:37;;;;;;;20.50;13.07;;;19.40;82.80;;;;;;5158976;27;20050;-83
2021/08/15 05:01:03;;;;;;;13.88;10.55;;;19.40;83.40;;;;;;5156815;27;20018;-83
2021/08/15 05:03:28;;;;;;;17.58;10.80;;;19.50;83.20;;;;;;5163137;27;20083;-83
2021/08/15 05:05:54;;;;;;;11.27;9.80;;;19.50;82.90;;;;;;5156608;27;20022;-83
2021/08/15 05:08:20;;;;;;;15.43;10.10;;;19.50;82.90;;;;;;5158663;27;20022;-82
2021/08/15 05:10:45;;;;;;;16.17;10.73;;;19.50;82.80;;;;;;5138083;27;20018;-83
2021/08/15 05:13:12;;;;;;;23.38;11.88;;;19.70;82.80;;;;;;5157621;27;20068;-82
2021/08/15 05:15:37;;;;;;;14.05;11.25;;;19.80;82.40;;;;;;5155956;27;20027;-76
2021/08/15 05:18:03;;;;;;;13.00;10.10;;;19.90;82.20;;;;;;5171680;27;20063;-76
2021/08/15 05:20:29;;;;;;;12.10;10.15;;;20.00;81.40;;;;;;5171815;27;20034;-78
2021/08/15 05:22:57;;;;;;;14.38;10.82;;;20.10;81.00;;;;;;5137534;27;20022;-79
2021/08/15 05:25:23;;;;;;;13.15;10.43;;;20.10;80.30;;;;;;5155157;27;20018;-79
2021/08/15 05:27:49;;;;;;;17.33;9.95;;;20.20;79.90;;;;;;5155121;27;20026;-80
2021/08/15 05:30:15;;;;;;;11.73;9.68;;;20.20;79.70;;;;;;5155300;27;20060;-80
2021/08/15 05:32:42;;;;;;;12.52;9.23;;;20.30;79.60;;;;;;5154908;27;20030;-79
2021/08/15 05:35:08;;;;;;;11.43;9.50;;;20.40;79.20;;;;;;5155176;27;20063;-81
2021/08/15 05:37:34;;;;;;;15.63;10.13;;;20.50;79.00;;;;;;5154686;27;20019;-78
2021/08/15 05:39:59;;;;;;;15.23;9.73;;;20.60;78.60;;;;;;5154601;27;20042;-75
2021/08/15 05:42:25;;;;;;;14.93;10.18;;;20.80;78.20;;;;;;5154510;27;20025;-76
2021/08/15 05:44:50;;;;;;;14.35;8.90;;;20.70;78.00;;;;;;5154504;27;20025;-80
2021/08/15 05:47:16;;;;;;;11.60;9.55;;;20.80;78.00;;;;;;5154508;27;20459;-78
2021/08/15 05:49:42;;;;;;;11.57;9.15;;;20.80;77.70;;;;;;5154344;27;20026;-83
2021/08/15 05:52:07;;;;;;;12.18;9.32;;;20.90;77.70;;;;;;5135917;27;20308;-78
2021/08/15 05:54:33;;;;;;;12.02;9.23;;;21.10;77.10;;;;;;5154353;27;20118;-81
2021/08/15 05:56:59;;;;;;;11.43;8.75;;;21.30;77.50;;;;;;5154622;27;20025;-82
2021/08/15 05:59:24;;;;;;;13.68;9.82;;;21.40;76.20;;;;;;5155887;27;20102;-80
2021/08/15 06:01:50;;;;;;;13.02;9.40;;;21.60;75.50;;;;;;5155300;27;20022;-78
2021/08/15 06:04:16;;;;;;;9.93;8.30;;;21.70;75.10;;;;;;5136882;27;20036;-78
2021/08/15 06:06:41;;;;;;;9.48;8.32;;;21.90;74.80;;;;;;5159139;27;20035;-77
2021/08/15 06:09:07;;;;;;;13.10;9.20;;;22.10;74.10;;;;;;5159963;27;20047;-78
2021/08/15 06:11:33;;;;;;;9.30;8.32;;;22.20;73.60;;;;;;5160265;27;20030;-81
2021/08/15 06:13:58;;;;;;;10.82;8.07;;;22.30;73.30;;;;;;5161647;27;20042;-80
2021/08/15 06:16:24;;;;;;;10.18;8.00;;;22.50;72.90;;;;;;5159105;27;20018;-81
2021/08/15 06:18:51;;;;;;;13.27;8.63;;;22.50;72.60;;;;;;5159242;27;20119;-79
2021/08/15 06:21:16;;;;;;;10.63;7.93;;;22.60;72.30;;;;;;5158307;27;20089;-81
2021/08/15 06:23:42;;;;;;;11.60;8.30;;;22.80;72.10;;;;;;5157786;27;20033;-77
2021/08/15 06:26:08;;;;;;;10.80;8.82;;;22.80;71.70;;;;;;5157763;27;20027;-82
2021/08/15 06:28:33;;;;;;;13.27;8.68;;;22.90;71.60;;;;;;5157723;27;20114;-81
2021/08/15 06:30:59;;;;;;;14.38;8.45;;;23.10;71.20;;;;;;5156473;27;20367;-82
2021/08/15 06:33:24;;;;;;;11.35;8.80;;;23.20;70.70;;;;;;5157506;27;20109;-82
2021/08/15 06:35:50;;;;;;;11.02;7.97;;;23.40;70.70;;;;;;5157751;27;20068;-78
2021/08/15 06:38:16;;;;;;;13.80;8.80;;;23.40;70.30;;;;;;5157613;27;20037;-77
2021/08/15 06:40:41;;;;;;;10.35;8.80;;;23.60;70.00;;;;;;5157503;27;20049;-81
2021/08/15 06:43:09;;;;;;;8.98;7.78;;;23.70;69.80;;;;;;5157449;27;20066;-82
2021/08/15 06:45:36;;;;;;;14.15;8.65;;;23.80;69.40;;;;;;5157424;27;20071;-81
2021/08/15 06:48:02;;;;;;;12.18;8.55;;;23.90;69.10;;;;;;5157274;27;20015;-81
2021/08/15 06:50:27;;;;;;;11.70;8.90;;;24.00;69.00;;;;;;5157489;27;20029;-80
2021/08/15 06:52:53;;;;;;;14.23;8.75;;;24.10;68.70;;;;;;5157086;27;20091;-79
2021/08/15 06:55:18;;;;;;;13.27;8.32;;;24.20;68.40;;;;;;5157319;27;20033;-79
2021/08/15 06:57:44;;;;;;;11.23;7.68;;;24.30;68.10;;;;;;5138559;27;20375;-79
2021/08/15 07:00:10;;;;;;;11.30;8.05;;;24.40;67.90;;;;;;5157219;27;20064;-77
2021/08/15 07:02:37;;;;;;;12.55;8.63;;;24.50;67.70;;;;;;5138602;27;20372;-78
2021/08/15 07:05:05;;;;;;;11.40;8.43;;;24.60;67.30;;;;;;5157147;27;20027;-77
2021/08/15 07:07:30;;;;;;;13.00;8.98;;;24.70;67.30;;;;;;5157076;27;20019;-79
2021/08/15 07:09:56;;;;;;;9.38;8.02;;;24.80;66.90;;;;;;5157277;27;20030;-78
2021/08/15 07:12:21;;;;;;;13.43;9.05;;;24.80;66.80;;;;;;5156967;27;20445;-80
2021/08/15 07:14:47;;;;;;;13.90;8.63;;;24.90;66.70;;;;;;5156837;27;20372;-80
2021/08/15 07:17:12;;;;;;;13.25;8.48;;;25.00;66.50;;;;;;5156388;27;20078;-80
2021/08/15 07:19:40;;;;;;;12.23;8.75;;;25.00;66.30;;;;;;5137904;27;20023;-78
2021/08/15 07:22:06;;;;;;;12.73;9.60;;;24.90;66.90;;;;;;5156943;27;20489;-78
2021/08/15 07:24:31;;;;;;;11.60;8.68;;;24.80;67.00;;;;;;5156515;27;20031;-81
2021/08/15 07:26:57;;;;;;;12.18;8.73;;;24.70;68.00;;;;;;5156540;27;20027;-82
2021/08/15 07:29:23;;;;;;;13.57;9.05;;;24.90;67.50;;;;;;5156866;27;20022;-80
2021/08/15 07:31:49;;;;;;;11.57;8.60;;;24.90;68.10;;;;;;5138103;27;20018;-81
2021/08/15 07:34:14;;;;;;;14.82;9.65;;;24.90;67.80;;;;;;5156451;27;20041;-76
2021/08/15 07:36:40;;;;;;;15.18;9.00;;;25.00;67.10;;;;;;5156452;27;20033;-79
2021/08/15 07:39:05;;;;;;;14.93;9.48;;;25.20;66.40;;;;;;5156406;27;20098;-76
2021/08/15 07:41:31;;;;;;;12.15;8.20;;;25.30;66.20;;;;;;5156359;27;20023;-77
2021/08/15 07:43:57;;;;;;;16.98;9.30;;;25.50;65.40;;;;;;5156364;27;20026;-79
2021/08/15 07:46:22;;;;;;;10.80;9.70;;;25.70;64.70;;;;;;5156508;27;20526;-79
2021/08/15 07:48:48;;;;;;;12.75;8.05;;;25.90;64.30;;;;;;5137712;27;20046;-78
2021/08/15 07:51:13;;;;;;;10.60;9.32;;;26.00;63.60;;;;;;5156077;27;20026;-80
2021/08/15 07:53:39;;;;;;;11.68;9.05;;;26.10;63.60;;;;;;5155889;27;20042;-76
2021/08/15 07:56:04;;;;;;;14.82;9.20;;;26.20;63.10;;;;;;5156154;27;20014;-80
2021/08/15 07:58:30;;;;;;;12.43;9.07;;;26.30;62.60;;;;;;5156059;27;20027;-79
2021/08/15 08:00:58;;;;;;;12.80;9.65;;;26.30;63.10;;;;;;5137489;27;20034;-81
2021/08/15 08:03:24;;;;;;;16.95;9.35;;;26.30;63.70;;;;;;5155914;27;20019;-82
2021/08/15 08:05:50;;;;;;;11.15;8.52;;;26.40;63.60;;;;;;5156419;27;20038;-81
2021/08/15 08:08:16;;;;;;;12.93;9.07;;;26.40;63.90;;;;;;5155936;27;20018;-77
2021/08/15 08:10:44;;;;;;;10.38;8.20;;;26.50;63.80;;;;;;5155864;27;20415;-82
2021/08/15 08:13:10;;;;;;;10.30;8.75;;;26.60;62.00;;;;;;5155931;27;20382;-76
2021/08/15 08:15:39;;;;;;;12.95;8.75;;;26.70;61.50;;;;;;5155733;27;20463;-81
2021/08/15 08:18:06;;;;;;;13.15;8.95;;;26.90;62.00;;;;;;5155638;27;20091;-76
2021/08/15 08:20:40;;;;;;;12.02;9.07;;;26.90;61.80;;;;;;5155705;27;20015;-75
2021/08/15 08:23:08;;;;;;;11.43;7.95;;;27.00;62.20;;;;;;5155698;27;20027;-76
2021/08/15 08:25:35;;;;;;;10.63;8.00;;;27.10;62.00;;;;;;5155322;27;20089;-77
2021/08/15 08:28:01;;;;;;;10.50;7.85;;;27.40;60.90;;;;;;5155209;27;20031;-77
2021/08/15 08:30:26;;;;;;;9.57;8.07;;;27.40;59.70;;;;;;5155292;27;20475;-76
2021/08/15 08:32:52;;;;;;;13.25;8.68;;;27.40;59.80;;;;;;5155248;27;20037;-77
2021/08/15 08:35:18;;;;;;;12.20;8.70;;;27.40;59.60;;;;;;5155320;27;20029;-78
2021/08/15 08:37:45;;;;;;;12.88;7.80;;;27.30;60.00;;;;;;5155196;27;20026;-77
2021/08/15 08:40:12;;;;;;;11.00;7.40;;;27.40;59.90;;;;;;5155400;27;20027;-76
2021/08/15 08:42:37;;;;;;;14.45;8.82;;;27.50;59.30;;;;;;5155229;27;20023;-75
2021/08/15 08:45:04;;;;;;;13.77;8.80;;;27.50;58.90;;;;;;5155154;27;20467;-75
2021/08/15 08:47:30;;;;;;;11.25;7.82;;;27.50;57.80;;;;;;5155098;27;20023;-75
2021/08/15 08:49:57;;;;;;;11.23;7.88;;;27.60;58.30;;;;;;5157330;27;20025;-82
2021/08/15 08:52:30;;;;;;;14.02;8.45;;;27.80;56.30;;;;;;5160142;27;20043;-83
2021/08/15 08:54:58;;;;;;;11.65;8.10;;;27.80;56.30;;;;;;5159292;27;20019;-83
2021/08/15 08:57:23;;;;;;;14.88;7.85;;;27.90;56.20;;;;;;5156796;27;20027;-76
2021/08/15 08:59:49;;;;;;;10.07;7.60;;;28.00;55.50;;;;;;5155179;27;20427;-79
2021/08/15 09:02:15;;;;;;;13.13;8.40;;;28.00;55.50;;;;;;5156427;27;20019;-76
2021/08/15 09:04:42;;;;;;;10.65;7.53;;;28.00;55.60;;;;;;5155370;27;20029;-79
2021/08/15 09:07:17;;;;;;;11.02;7.72;;;27.90;55.20;;;;;;5154955;27;20019;-76
2021/08/15 09:09:55;;;;;;;15.90;8.35;;;27.80;55.60;;;;;;5154932;27;20022;-76
2021/08/15 09:12:35;;;;;;;13.27;8.55;;;27.60;55.70;;;;;;5154911;27;20019;-76
2021/08/15 09:15:15;;;;;;;9.85;7.50;;;27.70;56.00;;;;;;5154967;27;20066;-83
2021/08/15 09:17:42;;;;;;;12.73;7.57;;;27.80;56.20;;;;;;5154814;27;20475;-82
2021/08/15 09:20:12;;;;;;;11.85;7.88;;;27.90;54.60;;;;;;5155109;27;20023;-83
2021/08/15 09:22:38;;;;;;;11.32;8.18;;;28.00;56.30;;;;;;5154944;27;20414;-83
2021/08/15 09:25:12;;;;;;;12.57;7.55;;;28.20;56.30;;;;;;5154998;27;20102;-85
2021/08/15 09:27:44;;;;;;;15.83;8.60;;;28.30;55.60;;;;;;5154990;27;20054;-83
2021/08/15 09:30:32;;;;;;;12.70;7.15;;;28.50;52.90;;;;;;5154882;27;20351;-83
2021/08/15 09:33:01;;;;;;;13.32;8.05;;;28.60;52.90;;;;;;5154905;27;20037;-82
2021/08/15 09:35:34;;;;;;;13.32;7.30;;;28.80;52.70;;;;;;5155231;27;20480;-75
2021/08/15 09:38:02;;;;;;;17.25;9.00;;;28.90;51.10;;;;;;5154721;27;20374;-79
2021/08/15 09:40:54;;;;;;;14.90;8.00;;;29.10;51.60;;;;;;5157465;27;20026;-78
2021/08/15 09:43:23;;;;;;;12.32;8.02;;;29.00;52.00;;;;;;5154709;27;20041;-82
2021/08/15 09:45:50;;;;;;;10.65;6.80;;;29.10;52.20;;;;;;5158798;27;20030;-82
2021/08/15 09:48:31;;;;;;;8.60;6.28;;;29.10;51.50;;;;;;5158292;27;20023;-82
2021/08/15 09:51:22;;;;;;;14.63;7.18;;;29.30;51.40;;;;;;5139857;27;20046;-81
2021/08/15 09:53:53;;;;;;;12.45;6.97;;;29.50;51.00;;;;;;5158468;27;20038;-78
2021/08/15 09:56:36;;;;;;;13.15;8.60;;;29.50;48.20;;;;;;5158560;27;20046;-80
2021/08/15 09:59:13;;;;;;;13.75;7.53;;;29.80;50.50;;;;;;5158487;27;20054;-76
2021/08/15 10:01:44;;;;;;;10.32;6.68;;;30.10;49.20;;;;;;5158493;27;20019;-76
2021/08/15 10:04:11;;;;;;;10.57;6.97;;;30.20;48.80;;;;;;5158571;27;20023;-78
2021/08/15 10:06:38;;;;;;;17.42;6.97;;;30.30;47.30;;;;;;5139846;27;20025;-77
2021/08/15 10:09:05;;;;;;;9.95;6.60;;;30.30;45.90;;;;;;5158229;27;20367;-77
2021/08/15 10:11:31;;;;;;;13.25;7.15;;;30.30;46.30;;;;;;5158254;27;20037;-76
2021/08/15 10:14:05;;;;;;;14.02;7.75;;;30.50;46.80;;;;;;5139691;27;20027;-80
2021/08/15 10:16:35;;;;;;;11.82;7.68;;;30.40;46.00;;;;;;5139572;27;20022;-79
2021/08/15 10:19:05;;;;;;;13.57;7.63;;;30.40;46.90;;;;;;5158064;27;20023;-79
2021/08/15 10:21:30;;;;;;;14.60;7.57;;;30.70;47.20;;;;;;5158388;27;20106;-77
2021/08/15 10:24:08;;;;;;;13.15;7.03;;;30.60;45.80;;;;;;5157928;27;20062;-78
2021/08/15 10:26:36;;;;;;;11.05;7.57;;;30.40;46.20;;;;;;5157826;27;20486;-84
2021/08/15 10:29:03;;;;;;;10.05;7.60;;;30.30;47.50;;;;;;5157971;27;20033;-76
2021/08/15 10:32:06;;;;;;;9.95;6.95;;;29.90;48.10;;;;;;5157831;27;20467;-78
2021/08/15 10:34:50;;;;;;;12.35;7.60;;;29.70;48.40;;;;;;5157654;27;20031;-76
2021/08/15 10:37:24;;;;;;;9.52;6.75;;;29.70;49.10;;;;;;5158349;27;20019;-77
2021/08/15 10:39:52;;;;;;;11.73;7.55;;;29.90;48.10;;;;;;5169305;27;20026;-84
2021/08/15 10:42:43;;;;;;;14.85;7.68;;;30.30;48.30;;;;;;5163470;27;20031;-77
2021/08/15 10:45:23;;;;;;;15.18;6.70;;;30.50;46.30;;;;;;5145155;27;20491;-77
2021/08/15 10:48:12;;;;;;;11.50;7.57;;;31.00;45.80;;;;;;5138677;27;20034;-77
2021/08/15 10:50:52;;;;;;;15.00;7.53;;;31.30;45.10;;;;;;5156452;27;20022;-79
2021/08/15 10:53:30;;;;;;;10.98;6.60;;;31.50;43.80;;;;;;5138824;27;20479;-75
2021/08/15 10:55:58;;;;;;;12.40;7.28;;;31.40;44.30;;;;;;5157576;27;20101;-87
2021/08/15 10:58:38;;;;;;;13.65;7.78;;;31.50;44.10;;;;;;5158108;27;20375;-85
2021/08/15 11:01:06;;;;;;;13.95;7.15;;;31.40;45.50;;;;;;5157737;27;20041;-85
2021/08/15 11:03:33;;;;;;;12.80;7.15;;;31.30;45.10;;;;;;5138907;27;20025;-77
2021/08/15 11:06:00;;;;;;;9.88;7.13;;;31.20;44.70;;;;;;5157339;27;20025;-82
2021/08/15 11:08:32;;;;;;;16.63;8.05;;;31.00;45.40;;;;;;5157419;27;20054;-79
2021/08/15 11:11:25;;;;;;;9.95;6.65;;;30.90;46.10;;;;;;5157217;27;20102;-79
2021/08/15 11:14:36;;;;;;;16.85;7.28;;;31.10;44.80;;;;;;5153226;27;20498;-73
2021/08/15 11:17:15;;;;;;;13.52;6.88;;;31.50;44.30;;;;;;5151680;27;20386;-72
2021/08/15 11:19:42;;;;;;;13.88;7.57;;;31.90;43.70;;;;;;5156781;27;20375;-73
2021/08/15 11:22:14;;;;;;;16.70;7.43;;;32.10;43.70;;;;;;5156833;27;20079;-74
2021/08/15 11:24:45;;;;;;;15.98;6.57;;;31.90;43.30;;;;;;5156605;27;20030;-73
2021/08/15 11:27:13;;;;;;;13.70;6.53;;;31.80;42.40;;;;;;5156798;27;20030;-73
2021/08/15 11:29:40;;;;;;;11.88;6.78;;;31.80;42.80;;;;;;5138166;27;20074;-73
2021/08/15 11:32:11;;;;;;;14.60;7.30;;;31.80;42.90;;;;;;5156656;27;20471;-75
2021/08/15 11:34:37;;;;;;;15.30;6.80;;;31.40;41.80;;;;;;5156484;27;20521;-73
2021/08/15 11:37:05;;;;;;;8.27;5.55;;;30.90;42.50;;;;;;5137884;27;20022;-74
2021/08/15 11:39:37;;;;;;;10.30;6.07;;;30.50;43.20;;;;;;5156148;27;20098;-75
2021/08/15 11:42:06;;;;;;;15.07;6.57;;;30.10;45.70;;;;;;5156331;27;20062;-73
2021/08/15 11:44:50;;;;;;;10.93;6.60;;;29.80;47.90;;;;;;5156276;27;20030;-73
2021/08/15 11:47:30;;;;;;;9.52;7.25;;;29.50;49.30;;;;;;5156011;27;20022;-77
2021/08/15 11:50:00;;;;;;;10.82;6.60;;;29.30;49.00;;;;;;5156349;27;20109;-73
2021/08/15 11:52:35;;;;;;;10.63;6.50;;;29.00;49.60;;;;;;5148696;27;20518;-73
2021/08/15 11:55:03;;;;;;;14.43;8.30;;;28.80;50.90;;;;;;5155566;27;20061;-73
2021/08/15 11:57:50;;;;;;;18.77;8.85;;;28.60;54.50;;;;;;5156030;27;20050;-74
2021/08/15 12:00:25;;;;;;;18.20;8.85;;;28.20;58.50;;;;;;5155792;27;20023;-73
2021/08/15 12:03:23;;;;;;;24.23;10.25;;;27.80;62.30;;;;;;5155502;27;20019;-74
2021/08/15 12:05:56;;;;;;;20.98;10.05;;;27.30;64.60;;;;;;5137299;27;20079;-73
2021/08/15 12:08:35;;;;;;;31.35;12.50;;;26.90;67.10;;;;;;5155753;27;20352;-73
2021/08/15 12:11:22;;;;;;;22.58;11.45;;;26.40;74.80;;;;;;5155903;27;20375;-72
2021/08/15 12:13:48;;;;;;;21.70;11.18;;;25.90;76.40;;;;;;5136911;27;20035;-72
2021/08/15 12:16:15;;;;;;;18.55;11.70;;;25.30;79.80;;;;;;5155837;27;20029;-73
2021/08/15 12:18:47;;;;;;;28.17;12.52;;;24.90;81.00;;;;;;5137029;27;20486;-72
2021/08/15 12:21:26;;;;;;;25.92;13.68;;;24.60;83.50;;;;;;5155660;27;20030;-71
2021/08/15 12:24:12;;;;;;;26.50;10.85;;;24.20;86.20;;;;;;5137081;27;20044;-73
2021/08/15 12:26:45;;;;;;;26.67;11.30;;;23.20;80.70;;;;;;5156009;27;20087;-73
2021/08/15 12:29:30;;;;;;;20.35;11.23;;;22.80;83.20;;;;;;5156090;27;20026;-73
2021/08/15 12:32:12;;;;;;;20.00;9.80;;;22.50;82.10;;;;;;5156116;27;20030;-76
2021/08/15 12:34:43;;;;;;;61.60;46.47;;;22.50;84.50;;;;;;5155473;27;20035;-73
2021/08/15 12:37:19;;;;;;;22.58;11.55;;;22.70;85.70;;;;;;5155328;27;20556;-75
2021/08/15 12:39:59;;;;;;;19.77;10.70;;;22.90;86.40;;;;;;5137015;27;20030;-72